Time;durP1;ratioP1;P1;durP2;ratioP2;P2;SDS_P1;SDS_P2;PMS_P1;PMS_P2;Temp;Humidity;BMP_temperature;BMP_pressure;BME280_temperature;BME280_humidity;BME280_pressure;Samples;Min_cycle;Max_cycle;Signal;HPM_P1;HPM_P2
2022/06/12 00:01:19;;;;;;;;;;;;;;;23.35;50.96;101639.03;4954083;28;4208;-62
2022/06/12 00:03:47;;;;;;;;;;;;;;;23.35;51.10;101641.91;4958908;28;4106;-61
2022/06/12 00:06:15;;;;;;;;;;;;;;;23.34;50.98;101642.56;4962757;28;4623;-61
2022/06/12 00:08:41;;;;;;;;;;;;;;;23.34;50.92;101643.34;4961422;28;5270;-61
2022/06/12 00:11:12;;;;;;;;;;;;;;;23.34;50.99;101646.22;4956094;28;4064;-61
2022/06/12 00:13:39;;;;;;;;;;;;;;;23.34;50.94;101651.22;4961675;28;5260;-61
2022/06/12 00:16:06;;;;;;;;;;;;;;;23.33;51.03;101647.59;4963377;28;4200;-61
2022/06/12 00:18:32;;;;;;;;;;;;;;;23.33;50.94;101647.59;4957856;28;4286;-61
2022/06/12 00:21:11;;;;;;;;;;;;;;;23.33;50.91;101644.72;4955346;28;4298;-62
2022/06/12 00:23:38;;;;;;;;;;;;;;;23.33;51.05;101650.50;4959535;28;5366;-61
2022/06/12 00:26:05;;;;;;;;;;;;;;;23.32;51.10;101645.34;4953864;28;5348;-62
2022/06/12 00:28:31;;;;;;;;;;;;;;;23.32;50.95;101642.47;4952129;28;5383;-61
2022/06/12 00:30:57;;;;;;;;;;;;;;;23.31;51.25;101641.72;4963512;28;4592;-62
2022/06/12 00:33:24;;;;;;;;;;;;;;;23.31;51.01;101635.22;4962793;28;4181;-62
2022/06/12 00:35:50;;;;;;;;;;;;;;;23.31;51.00;101633.06;4960647;28;4210;-62
2022/06/12 00:38:16;;;;;;;;;;;;;;;23.29;50.99;101635.84;4960806;28;5714;-61
2022/06/12 00:40:43;;;;;;;;;;;;;;;23.30;50.92;101628.69;4963600;28;5363;-61
2022/06/12 00:43:10;;;;;;;;;;;;;;;23.30;51.01;101625.06;4963111;28;4196;-62
2022/06/12 00:45:42;;;;;;;;;;;;;;;23.29;51.34;101627.19;4957862;28;4312;-62
2022/06/12 00:48:17;;;;;;;;;;;;;;;23.28;51.08;101628.59;4959991;28;5235;-62
2022/06/12 00:50:55;;;;;;;;;;;;;;;23.26;51.17;101619.09;4960301;28;4285;-62
2022/06/12 00:53:23;;;;;;;;;;;;;;;23.23;51.34;101621.13;4960246;28;4190;-62
2022/06/12 00:56:08;;;;;;;;;;;;;;;23.23;51.24;101621.13;4957688;28;4236;-62
2022/06/12 00:58:36;;;;;;;;;;;;;;;23.24;51.18;101622.63;4955367;28;4186;-61
2022/06/12 01:01:03;;;;;;;;;;;;;;;23.25;51.39;101618.34;4955664;28;4273;-62
2022/06/12 01:03:29;;;;;;;;;;;;;;;23.25;51.55;101618.34;4961662;28;4084;-61
2022/06/12 01:08:41;;;;;;;;;;;;;;;23.26;51.28;101631.38;4962297;28;4086;-62
2022/06/12 01:11:08;;;;;;;;;;;;;;;23.26;51.33;101631.38;4963908;28;4123;-62
2022/06/12 01:13:37;;;;;;;;;;;;;;;23.26;51.27;101624.88;4956199;28;5514;-62
2022/06/12 01:16:05;;;;;;;;;;;;;;;23.26;51.22;101625.59;4956364;28;4289;-62
2022/06/12 01:18:34;;;;;;;;;;;;;;;23.26;51.52;101619.09;4953661;28;4084;-61
2022/06/12 01:21:10;;;;;;;;;;;;;;;23.25;51.36;101617.56;4961542;28;4165;-62
2022/06/12 01:23:56;;;;;;;;;;;;;;;23.25;51.48;101618.34;4965211;28;4182;-62
2022/06/12 01:26:39;;;;;;;;;;;;;;;23.25;51.44;101618.34;4967450;28;4239;-62
2022/06/12 01:29:07;;;;;;;;;;;;;;;23.25;51.32;101618.34;4976044;28;4181;-62
2022/06/12 01:31:37;;;;;;;;;;;;;;;23.25;51.12;101612.56;4949496;28;5574;-61
2022/06/12 01:34:24;;;;;;;;;;;;;;;23.25;51.20;101612.56;4956641;28;5249;-62
2022/06/12 01:36:58;;;;;;;;;;;;;;;23.25;51.42;101612.56;4962307;28;4895;-62
2022/06/12 01:39:30;;;;;;;;;;;;;;;23.24;51.34;101613.94;4963736;28;4550;-62
2022/06/12 01:42:06;;;;;;;;;;;;;;;23.24;51.09;101605.28;4960885;28;4552;-62
2022/06/12 01:44:40;;;;;;;;;;;;;;;23.24;51.38;101605.28;4959539;28;4201;-62
2022/06/12 01:47:13;;;;;;;;;;;;;;;23.24;51.05;101598.75;4955118;28;4188;-62
2022/06/12 01:49:57;;;;;;;;;;;;;;;23.24;51.19;101599.50;4961480;28;4214;-62
2022/06/12 01:52:28;;;;;;;;;;;;;;;23.24;51.17;101611.06;4963353;28;4493;-62
2022/06/12 01:55:07;;;;;;;;;;;;;;;23.24;51.29;101602.38;4965116;28;4450;-62
2022/06/12 01:57:48;;;;;;;;;;;;;;;23.23;51.40;101603.78;4956990;28;4162;-62
2022/06/12 02:00:19;;;;;;;;;;;;;;;23.23;51.04;101598.03;4955197;28;4305;-62
2022/06/12 02:02:49;;;;;;;;;;;;;;;23.23;51.09;101598.03;4953997;28;4232;-61
2022/06/12 02:05:22;;;;;;;;;;;;;;;23.22;51.29;101590.72;4955683;28;4215;-61
2022/06/12 02:07:50;;;;;;;;;;;;;;;23.21;51.10;101587.09;4963641;28;4256;-61
2022/06/12 02:10:30;;;;;;;;;;;;;;;23.21;51.26;101589.25;4965267;28;4332;-61
2022/06/12 02:13:11;;;;;;;;;;;;;;;23.21;51.14;101589.25;4977032;28;4092;-62
2022/06/12 02:15:49;;;;;;;;;;;;;;;23.21;51.04;101589.25;4960249;28;4022;-61
2022/06/12 02:18:23;;;;;;;;;;;;;;;23.20;51.15;101581.97;4953242;28;4073;-61
2022/06/12 02:20:52;;;;;;;;;;;;;;;23.20;51.02;101576.97;4960338;28;3966;-62
2022/06/12 02:23:23;;;;;;;;;;;;;;;23.21;51.23;101583.47;4963794;28;4202;-61
2022/06/12 02:25:52;;;;;;;;;;;;;;;23.20;51.17;101587.75;4978841;28;4208;-62
2022/06/12 02:28:19;;;;;;;;;;;;;;;23.20;51.30;101593.53;4964930;28;4193;-62
2022/06/12 02:30:49;;;;;;;;;;;;;;;23.19;51.20;101589.91;4962548;28;4122;-62
2022/06/12 02:33:18;;;;;;;;;;;;;;;23.20;51.12;101587.75;4958291;28;5344;-61
2022/06/12 02:35:56;;;;;;;;;;;;;;;23.20;51.43;101584.84;4957196;28;4202;-62
2022/06/12 02:38:24;;;;;;;;;;;;;;;23.20;51.18;101584.84;4965516;28;4073;-62
2022/06/12 02:40:51;;;;;;;;;;;;;;;23.19;51.23;101577.59;4958514;28;5192;-62
2022/06/12 02:43:18;;;;;;;;;;;;;;;23.19;51.20;101580.50;4966013;28;5337;-62
2022/06/12 02:45:47;;;;;;;;;;;;;;;23.19;51.39;101569.66;4963918;28;4266;-62
2022/06/12 02:48:13;;;;;;;;;;;;;;;23.18;51.05;101565.31;4951599;28;4238;-61
2022/06/12 02:50:41;;;;;;;;;;;;;;;23.19;51.15;101563.88;4957970;28;4359;-61
2022/06/12 02:53:10;;;;;;;;;;;;;;;23.18;51.30;101550.84;4963049;28;4237;-60
2022/06/12 02:55:43;;;;;;;;;;;;;;;23.19;51.26;101560.25;4968381;28;4196;-61
2022/06/12 02:58:18;;;;;;;;;;;;;;;23.19;51.18;101563.16;4964093;28;4370;-62
2022/06/12 03:00:47;;;;;;;;;;;;;;;23.18;51.19;101558.75;4961820;28;5341;-61
2022/06/12 03:03:16;;;;;;;;;;;;;;;23.18;51.19;101555.88;4954901;28;4227;-61
2022/06/12 03:05:43;;;;;;;;;;;;;;;23.19;51.20;101560.25;4962113;28;4293;-61
2022/06/12 03:08:14;;;;;;;;;;;;;;;23.17;51.32;101557.28;4966513;28;4310;-61
2022/06/12 03:10:45;;;;;;;;;;;;;;;23.17;51.18;101560.91;4964623;28;4353;-62
2022/06/12 03:13:11;;;;;;;;;;;;;;;23.17;51.20;101557.28;4962109;28;4209;-62
2022/06/12 03:15:40;;;;;;;;;;;;;;;23.17;51.63;101555.13;4965613;28;4463;-62
2022/06/12 03:18:07;;;;;;;;;;;;;;;23.17;51.29;101560.16;4958981;28;4274;-62
2022/06/12 03:20:38;;;;;;;;;;;;;;;23.16;51.42;101559.44;4970851;28;5345;-60
2022/06/12 03:23:08;;;;;;;;;;;;;;;23.17;51.26;101560.91;4979548;28;4408;-62
2022/06/12 03:25:41;;;;;;;;;;;;;;;23.17;51.33;101563.78;4963941;28;4197;-60
2022/06/12 03:28:11;;;;;;;;;;;;;;;23.18;51.18;101568.19;4959252;28;4211;-63
2022/06/12 03:31:09;;;;;;;;;;;;;;;23.18;51.39;101564.53;4952949;28;4001;-62
2022/06/12 03:34:15;;;;;;;;;;;;;;;23.17;52.08;101571.72;4966682;28;4053;-62
2022/06/12 03:37:31;;;;;;;;;;;;;;;23.16;52.07;101590.47;4921898;28;4227;-62
2022/06/12 03:40:04;;;;;;;;;;;;;;;23.17;51.80;101597.72;4963307;28;4181;-62
2022/06/12 03:42:35;;;;;;;;;;;;;;;23.18;52.05;101591.31;4961146;28;4153;-62
2022/06/12 03:45:05;;;;;;;;;;;;;;;23.17;51.73;101589.06;4963765;28;5313;-62
2022/06/12 03:47:51;;;;;;;;;;;;;;;23.15;51.99;101586.06;4956549;28;4339;-62
2022/06/12 03:50:21;;;;;;;;;;;;;;;23.15;51.83;101591.84;4963261;28;4249;-61
2022/06/12 03:53:01;;;;;;;;;;;;;;;23.15;51.71;101597.63;4964459;28;4207;-62
2022/06/12 03:58:17;;;;;;;;;;;;;;;23.14;51.83;101607.72;4957627;28;4268;-62
2022/06/12 04:00:44;;;;;;;;;;;;;;;23.14;51.80;101601.94;4961009;28;4084;-62
2022/06/12 04:03:12;;;;;;;;;;;;;;;23.13;51.92;101606.19;4956204;28;5634;-62
2022/06/12 04:05:57;;;;;;;;;;;;;;;23.13;51.91;101606.94;4974691;28;4405;-62
2022/06/12 04:08:29;;;;;;;;;;;;;;;23.13;51.83;101620.66;4959427;28;5381;-62
2022/06/12 04:10:55;;;;;;;;;;;;;;;23.12;51.96;101636.50;4960587;28;4377;-63
2022/06/12 04:13:22;;;;;;;;;;;;;;;23.13;52.16;101658.19;4959424;28;4258;-62
2022/06/12 04:15:52;;;;;;;;;;;;;;;23.12;52.11;101676.94;4966277;28;4289;-61
2022/06/12 04:18:19;;;;;;;;;;;;;;;23.12;52.01;101668.28;4960639;28;5135;-62
2022/06/12 04:20:48;;;;;;;;;;;;;;;23.11;51.86;101640.78;4962250;28;4558;-62
2022/06/12 04:23:22;;;;;;;;;;;;;;;23.11;51.91;101649.44;4965051;28;4580;-62
2022/06/12 04:25:49;;;;;;;;;;;;;;;23.11;52.25;101661.75;4966147;28;4378;-62
2022/06/12 04:28:27;;;;;;;;;;;;;;;23.10;52.09;101654.47;4963240;28;5409;-62
2022/06/12 04:30:54;;;;;;;;;;;;;;;23.11;51.88;101632.09;4962772;28;4238;-62
2022/06/12 04:33:34;;;;;;;;;;;;;;;23.11;51.99;101620.53;4964940;28;4202;-62
2022/06/12 04:36:00;;;;;;;;;;;;;;;23.09;52.08;101612.56;4965839;28;5381;-62
2022/06/12 04:38:27;;;;;;;;;;;;;;;23.09;52.64;101606.78;4965952;28;5373;-62
2022/06/12 04:40:53;;;;;;;;;;;;;;;23.10;52.51;101619.06;4964718;28;4156;-62
2022/06/12 04:43:20;;;;;;;;;;;;;;;23.10;52.82;101619.06;4958598;28;5081;-61
2022/06/12 04:45:47;;;;;;;;;;;;;;;23.10;52.46;101613.28;4962527;28;5305;-61
2022/06/12 04:48:15;;;;;;;;;;;;;;;23.10;52.65;101619.06;4966174;28;4219;-61
2022/06/12 04:50:41;;;;;;;;;;;;;;;23.10;52.64;101610.41;4964082;28;4125;-61
2022/06/12 04:53:08;;;;;;;;;;;;;;;23.10;52.57;101608.25;4966942;28;5296;-62
2022/06/12 04:55:34;;;;;;;;;;;;;;;23.10;52.49;101604.63;4970206;28;4247;-61
2022/06/12 04:58:00;;;;;;;;;;;;;;;23.09;52.61;101608.91;4966941;28;4369;-61
2022/06/12 05:00:27;;;;;;;;;;;;;;;23.09;53.08;101611.78;4968093;28;4353;-61
2022/06/12 05:02:53;;;;;;;;;;;;;;;23.09;52.90;101615.44;4969172;28;5386;-61
2022/06/12 05:05:20;;;;;;;;;;;;;;;23.08;52.90;101611.03;4968705;28;4557;-61
2022/06/12 05:07:46;;;;;;;;;;;;;;;23.09;53.11;101611.78;4969796;28;5262;-61
2022/06/12 05:10:13;;;;;;;;;;;;;;;23.09;52.90;101606.00;4967774;28;5200;-61
2022/06/12 05:12:39;;;;;;;;;;;;;;;23.08;53.05;101604.53;4983025;28;4063;-61
2022/06/12 05:15:07;;;;;;;;;;;;;;;23.07;53.28;101618.22;4966070;28;4267;-61
2022/06/12 05:17:33;;;;;;;;;;;;;;;23.07;53.26;101615.34;4964701;28;4387;-61
2022/06/12 05:19:59;;;;;;;;;;;;;;;23.08;53.19;101616.09;4969771;28;4286;-61
2022/06/12 05:22:26;;;;;;;;;;;;;;;23.10;53.39;101619.06;4966035;28;4108;-61
2022/06/12 05:24:53;;;;;;;;;;;;;;;23.14;53.51;101625.03;4969174;28;4247;-61
2022/06/12 05:27:20;;;;;;;;;;;;;;;23.15;53.40;101620.75;4969794;28;5484;-61
2022/06/12 05:29:46;;;;;;;;;;;;;;;23.09;53.65;101606.00;4965941;28;4243;-61
2022/06/12 05:32:13;;;;;;;;;;;;;;;23.08;53.87;101610.31;4964740;28;4270;-61
2022/06/12 05:34:39;;;;;;;;;;;;;;;23.08;54.00;101613.19;4969440;28;4559;-61
2022/06/12 05:37:06;;;;;;;;;;;;;;;23.07;53.76;101614.59;4969495;28;4210;-62
2022/06/12 05:39:32;;;;;;;;;;;;;;;23.07;53.86;101608.81;4964578;28;4209;-61
2022/06/12 05:41:59;;;;;;;;;;;;;;;23.07;53.71;101603.03;4968338;28;5356;-61
2022/06/12 05:44:25;;;;;;;;;;;;;;;23.07;53.55;101603.03;4966904;28;5302;-62
2022/06/12 05:46:55;;;;;;;;;;;;;;;23.06;53.81;101604.44;4964408;28;5321;-61
2022/06/12 05:49:22;;;;;;;;;;;;;;;23.06;53.85;101610.19;4970227;28;4152;-61
2022/06/12 05:51:48;;;;;;;;;;;;;;;23.07;54.08;101603.78;4963721;28;4276;-61
2022/06/12 05:54:15;;;;;;;;;;;;;;;23.07;53.58;101598.00;4957542;28;5372;-60
2022/06/12 05:56:41;;;;;;;;;;;;;;;23.09;53.62;101601.00;4965219;28;4298;-62
2022/06/12 05:59:07;;;;;;;;;;;;;;;23.09;54.75;101606.00;4966803;28;4305;-62
2022/06/12 06:01:34;;;;;;;;;;;;;;;23.09;56.46;101591.56;4960552;28;4246;-61
2022/06/12 06:04:00;;;;;;;;;;;;;;;23.13;57.47;101588.88;4962640;28;4530;-62
2022/06/12 06:06:29;;;;;;;;;;;;;;;23.04;58.17;101587.75;4963387;28;5307;-62
2022/06/12 06:09:00;;;;;;;;;;;;;;;22.98;58.90;101582.41;4965117;28;4192;-62
2022/06/12 06:11:27;;;;;;;;;;;;;;;23.03;59.45;101592.03;4970032;28;4304;-62
2022/06/12 06:13:53;;;;;;;;;;;;;;;23.07;59.49;101592.22;4964078;28;5378;-62
2022/06/12 06:16:19;;;;;;;;;;;;;;;23.05;59.97;101588.50;4966906;28;4191;-62
2022/06/12 06:18:46;;;;;;;;;;;;;;;22.99;60.59;101595.47;4962600;28;4575;-60
2022/06/12 06:21:14;;;;;;;;;;;;;;;22.98;61.42;101601.88;4958053;28;4266;-68
2022/06/12 06:23:46;;;;;;;;;;;;;;;22.92;63.04;101611.00;4959361;28;4211;-75
2022/06/12 06:26:12;;;;;;;;;;;;;;;22.87;64.31;101605.69;4962967;28;5365;-75
2022/06/12 06:28:39;;;;;;;;;;;;;;;22.83;65.02;101612.00;4963620;28;4260;-60
2022/06/12 06:31:06;;;;;;;;;;;;;;;22.86;64.77;101607.06;4958877;28;5562;-62
2022/06/12 06:33:32;;;;;;;;;;;;;;;22.91;64.44;101608.78;4966255;28;4165;-70
2022/06/12 06:36:06;;;;;;;;;;;;;;;22.91;63.76;101611.66;4968519;28;4287;-70
2022/06/12 06:38:32;;;;;;;;;;;;;;;22.89;64.40;101623.09;4961291;28;4307;-61
2022/06/12 06:40:58;;;;;;;;;;;;;;;22.90;63.70;101619.56;4963179;28;4763;-61
2022/06/12 06:43:25;;;;;;;;;;;;;;;22.89;63.11;101623.84;4959754;28;4599;-61
2022/06/12 06:48:37;;;;;;;;;;;;;;;22.93;62.67;101615.38;4962885;28;4270;-61
2022/06/12 06:51:03;;;;;;;;;;;;;;;22.93;63.09;101618.28;4967636;28;4174;-61
2022/06/12 06:53:29;;;;;;;;;;;;;;;22.93;62.95;101617.50;4968533;28;4179;-61
2022/06/12 06:55:56;;;;;;;;;;;;;;;22.92;62.99;101621.81;4965145;28;4249;-62
2022/06/12 06:58:23;;;;;;;;;;;;;;;22.93;63.14;101621.16;4965443;28;4229;-61
2022/06/12 07:00:49;;;;;;;;;;;;;;;22.93;62.99;101603.84;4965254;28;4225;-61
2022/06/12 07:03:15;;;;;;;;;;;;;;;22.92;63.05;101611.00;4967061;28;4519;-61
2022/06/12 07:05:42;;;;;;;;;;;;;;;22.95;62.46;101603.16;4966979;28;4233;-61
2022/06/12 07:08:09;;;;;;;;;;;;;;;22.93;62.41;101600.94;4966663;28;6547;-61
2022/06/12 07:10:35;;;;;;;;;;;;;;;22.93;62.73;101592.28;4965130;28;4237;-61
2022/06/12 07:13:02;;;;;;;;;;;;;;;22.91;62.60;101603.00;4960688;28;5515;-61
2022/06/12 07:15:28;;;;;;;;;;;;;;;22.88;62.27;101593.47;4961900;28;4535;-61
2022/06/12 07:17:55;;;;;;;;;;;;;;;22.89;62.41;101597.13;4965087;28;5644;-63
2022/06/12 07:20:22;;;;;;;;;;;;;;;22.89;62.40;101594.97;4960693;28;5245;-61
2022/06/12 07:22:49;;;;;;;;;;;;;;;22.88;62.11;101602.13;4967809;28;4047;-62
2022/06/12 07:25:16;;;;;;;;;;;;;;;22.88;62.29;101592.72;4966079;28;5266;-61
2022/06/12 07:27:43;;;;;;;;;;;;;;;22.87;62.32;101591.97;4963984;28;4564;-61
2022/06/12 07:30:10;;;;;;;;;;;;;;;22.89;62.32;101588.44;4964123;28;4171;-61
2022/06/12 07:32:36;;;;;;;;;;;;;;;22.90;62.43;101579.13;4966933;28;4157;-61
2022/06/12 07:35:03;;;;;;;;;;;;;;;22.88;62.45;101584.78;4959779;28;4010;-61
2022/06/12 07:37:30;;;;;;;;;;;;;;;22.86;62.60;101578.94;4965014;28;4184;-61
2022/06/12 07:39:56;;;;;;;;;;;;;;;22.86;62.41;101578.19;4961588;28;4243;-61
2022/06/12 07:42:28;;;;;;;;;;;;;;;22.86;62.12;101573.19;4964812;28;4172;-61
2022/06/12 07:44:55;;;;;;;;;;;;;;;22.85;62.34;101573.81;4966423;28;4126;-63
2022/06/12 07:47:21;;;;;;;;;;;;;;;22.87;62.06;101574.66;4965318;28;4233;-61
2022/06/12 07:49:47;;;;;;;;;;;;;;;22.86;61.99;101575.28;4965885;28;4692;-61
2022/06/12 07:52:15;;;;;;;;;;;;;;;22.86;62.31;101573.19;4966219;28;5243;-61
2022/06/12 07:54:48;;;;;;;;;;;;;;;22.87;61.97;101585.47;4964114;28;4219;-62
2022/06/12 07:57:14;;;;;;;;;;;;;;;22.85;62.04;101583.22;4961475;28;4066;-62
2022/06/12 07:59:40;;;;;;;;;;;;;;;22.84;62.10;101578.84;4964316;28;5433;-61
2022/06/12 08:02:07;;;;;;;;;;;;;;;22.83;61.65;101577.34;4965102;28;4287;-61
2022/06/12 08:04:33;;;;;;;;;;;;;;;22.84;61.77;101578.09;4962601;28;4256;-61
2022/06/12 08:07:00;;;;;;;;;;;;;;;22.82;61.30;101575.88;4962777;28;4279;-62
2022/06/12 08:09:27;;;;;;;;;;;;;;;22.84;61.09;101578.09;4964400;28;4178;-62
2022/06/12 08:11:54;;;;;;;;;;;;;;;22.84;61.08;101575.19;4964254;28;5240;-61
2022/06/12 08:14:20;;;;;;;;;;;;;;;22.83;60.79;101577.34;4966769;28;4202;-61
2022/06/12 08:16:46;;;;;;;;;;;;;;;22.83;60.90;101568.69;4965502;28;4330;-61
2022/06/12 08:21:58;;;;;;;;;;;;;;;22.85;60.56;101583.22;4966911;28;4196;-61
2022/06/12 08:24:25;;;;;;;;;;;;;;;22.85;60.57;101577.44;4964542;28;4252;-61
2022/06/12 08:26:51;;;;;;;;;;;;;;;22.86;60.32;101576.06;4966107;28;4222;-61
2022/06/12 08:29:21;;;;;;;;;;;;;;;22.86;60.27;101570.28;4961720;28;4216;-61
2022/06/12 08:31:49;;;;;;;;;;;;;;;22.86;60.25;101567.41;4964425;28;4125;-62
2022/06/12 08:34:22;;;;;;;;;;;;;;;22.86;59.94;101578.94;4964997;28;4189;-62
2022/06/12 08:36:49;;;;;;;;;;;;;;;22.86;60.30;101567.41;4965640;28;4190;-62
2022/06/12 08:39:15;;;;;;;;;;;;;;;22.88;60.13;101576.13;4961156;28;4227;-61
2022/06/12 08:41:47;;;;;;;;;;;;;;;22.86;61.07;101573.19;4963030;28;4253;-61
2022/06/12 08:44:15;;;;;;;;;;;;;;;22.87;61.12;101577.53;4965675;28;4106;-61
2022/06/12 08:46:49;;;;;;;;;;;;;;;22.84;61.50;101573.06;4966346;28;4169;-61
2022/06/12 08:49:21;;;;;;;;;;;;;;;22.86;60.88;101573.19;4964503;28;4565;-61
2022/06/12 08:51:48;;;;;;;;;;;;;;;22.89;60.94;101571.13;4964006;28;4245;-61
2022/06/12 08:54:19;;;;;;;;;;;;;;;22.91;60.76;101574.09;4965143;28;4401;-61
2022/06/12 08:56:47;;;;;;;;;;;;;;;22.91;60.93;101574.84;4958226;28;4287;-61
2022/06/12 08:59:28;;;;;;;;;;;;;;;22.91;60.24;101583.50;4979984;28;4417;-61
2022/06/12 09:01:54;;;;;;;;;;;;;;;22.92;60.01;101575.59;4965942;28;4288;-62
2022/06/12 09:04:23;;;;;;;;;;;;;;;22.92;59.41;101572.69;4964912;28;4104;-61
2022/06/12 09:06:57;;;;;;;;;;;;;;;22.91;59.04;101580.63;4958709;28;4116;-62
2022/06/12 09:09:31;;;;;;;;;;;;;;;22.90;58.67;101573.34;4964269;28;4188;-61
2022/06/12 09:12:02;;;;;;;;;;;;;;;22.91;58.42;101569.06;4954135;28;4245;-62
2022/06/12 09:14:41;;;;;;;;;;;;;;;22.94;58.62;101561.25;4965110;28;4189;-61
2022/06/12 09:17:09;;;;;;;;;;;;;;;22.95;58.50;101557.72;4965237;28;4306;-61
2022/06/12 09:19:45;;;;;;;;;;;;;;;22.96;58.52;101559.19;4962301;28;4221;-61
2022/06/12 09:22:13;;;;;;;;;;;;;;;22.97;58.48;101566.47;4962782;28;4077;-61
2022/06/12 09:24:42;;;;;;;;;;;;;;;23.02;58.43;101569.56;4963845;28;4097;-60
2022/06/12 09:27:12;;;;;;;;;;;;;;;23.00;58.31;101570.97;4955652;28;6451;-61
2022/06/12 09:29:44;;;;;;;;;;;;;;;23.00;58.26;101570.25;4958235;28;4261;-61
2022/06/12 09:32:24;;;;;;;;;;;;;;;22.98;58.26;101570.84;4962512;28;4210;-61
2022/06/12 09:34:59;;;;;;;;;;;;;;;23.00;58.23;101573.13;4964212;28;5322;-61
2022/06/12 09:40:39;;;;;;;;;;;;;;;23.01;57.78;101565.94;4964196;28;4202;-61
2022/06/12 09:43:18;;;;;;;;;;;;;;;23.00;57.88;101570.97;4968113;28;4260;-61
2022/06/12 09:45:51;;;;;;;;;;;;;;;23.03;57.73;101571.06;4962912;28;4077;-61
2022/06/12 09:48:36;;;;;;;;;;;;;;;23.02;57.67;101563.78;4967773;28;4198;-61
2022/06/12 09:51:17;;;;;;;;;;;;;;;23.05;57.44;101556.72;4965112;28;4242;-61
2022/06/12 09:54:06;;;;;;;;;;;;;;;23.02;57.75;101550.13;4969806;28;4084;-61
2022/06/12 09:56:34;;;;;;;;;;;;;;;23.04;57.43;101552.34;4965178;28;5283;-61
2022/06/12 09:59:07;;;;;;;;;;;;;;;23.03;57.65;101542.94;4967280;28;5350;-61
2022/06/12 10:01:34;;;;;;;;;;;;;;;23.03;57.72;101542.19;4967233;28;4305;-61
2022/06/12 10:04:03;;;;;;;;;;;;;;;23.07;57.63;101548.16;4960896;28;4992;-61
2022/06/12 10:06:35;;;;;;;;;;;;;;;23.05;57.44;101545.19;4966888;28;5308;-61
2022/06/12 10:09:06;;;;;;;;;;;;;;;23.04;57.33;101541.50;4961875;28;4166;-61
2022/06/12 10:11:34;;;;;;;;;;;;;;;23.04;57.18;101543.66;4962206;28;4191;-61
2022/06/12 10:14:02;;;;;;;;;;;;;;;23.06;57.02;101537.97;4967031;28;5229;-62
2022/06/12 10:16:30;;;;;;;;;;;;;;;23.05;57.33;101536.50;4968530;28;4028;-61
2022/06/12 10:19:36;;;;;;;;;;;;;;;23.05;56.96;101530.72;4965059;28;4189;-61
2022/06/12 10:22:10;;;;;;;;;;;;;;;23.06;56.98;101544.50;4956313;28;6496;-61
2022/06/12 10:24:36;;;;;;;;;;;;;;;23.07;56.46;101540.22;4968558;28;4237;-61
2022/06/12 10:27:04;;;;;;;;;;;;;;;23.07;56.55;101533.72;4966611;28;4234;-61
2022/06/12 10:29:40;;;;;;;;;;;;;;;23.07;56.34;101533.72;4963121;28;4295;-61
2022/06/12 10:32:10;;;;;;;;;;;;;;;23.06;56.06;101527.16;4961945;28;4369;-62
2022/06/12 10:34:37;;;;;;;;;;;;;;;23.07;55.74;101527.94;4981179;28;5212;-61
2022/06/12 10:37:10;;;;;;;;;;;;;;;23.08;55.81;101523.63;4967310;28;4504;-62
2022/06/12 10:39:36;;;;;;;;;;;;;;;23.09;55.64;101528.00;4965014;28;4065;-61
2022/06/12 10:42:04;;;;;;;;;;;;;;;23.09;55.47;101530.91;4968351;28;4513;-61
2022/06/12 10:44:32;;;;;;;;;;;;;;;23.12;55.50;101529.59;4966847;28;5305;-61
2022/06/12 10:47:17;;;;;;;;;;;;;;;23.10;55.51;101521.59;4966347;28;4228;-61
2022/06/12 10:49:44;;;;;;;;;;;;;;;23.10;55.52;101520.84;4966199;28;4031;-62
2022/06/12 10:52:14;;;;;;;;;;;;;;;23.10;55.47;101520.84;4965451;28;5280;-61
2022/06/12 10:54:41;;;;;;;;;;;;;;;23.11;55.55;101525.22;4967602;28;4249;-62
2022/06/12 10:57:07;;;;;;;;;;;;;;;23.11;55.69;101528.09;4963728;28;4081;-62
2022/06/12 10:59:34;;;;;;;;;;;;;;;23.10;55.40;101523.72;4967138;28;4073;-62
2022/06/12 11:02:06;;;;;;;;;;;;;;;23.13;55.64;101522.41;4965550;28;5250;-62
2022/06/12 11:04:39;;;;;;;;;;;;;;;23.11;55.61;101516.53;4961811;28;5743;-61
2022/06/12 11:07:17;;;;;;;;;;;;;;;23.12;55.73;101512.28;4958562;28;4287;-61
2022/06/12 11:09:57;;;;;;;;;;;;;;;23.17;55.37;101508.16;4967010;28;4049;-61
2022/06/12 11:12:26;;;;;;;;;;;;;;;23.16;55.63;101507.44;4962500;28;5248;-62
2022/06/12 11:14:56;;;;;;;;;;;;;;;23.16;55.76;101515.34;4966931;28;5077;-61
2022/06/12 11:17:42;;;;;;;;;;;;;;;23.13;55.65;101511.59;4964480;28;4210;-61
2022/06/12 11:20:16;;;;;;;;;;;;;;;23.13;55.94;101511.59;4968404;28;4180;-60
2022/06/12 11:22:57;;;;;;;;;;;;;;;23.13;55.61;101502.94;4954956;28;4208;-61
2022/06/12 11:25:35;;;;;;;;;;;;;;;23.13;55.55;101494.28;4955428;28;5263;-60
2022/06/12 11:28:22;;;;;;;;;;;;;;;23.13;55.66;101502.94;4963585;28;4324;-61
2022/06/12 11:30:51;;;;;;;;;;;;;;;23.15;55.88;101493.63;4965863;28;4058;-61
2022/06/12 11:33:43;;;;;;;;;;;;;;;23.14;55.80;101489.25;4964614;28;4264;-61
2022/06/12 11:36:28;;;;;;;;;;;;;;;23.15;56.11;101485.69;4965389;28;5278;-61
2022/06/12 11:38:54;;;;;;;;;;;;;;;23.17;55.75;101473.50;4962012;28;5442;-62
2022/06/12 11:41:24;;;;;;;;;;;;;;;23.16;55.83;101472.75;4965978;28;5314;-61
2022/06/12 11:43:54;;;;;;;;;;;;;;;23.20;55.62;101472.94;4960692;28;4398;-61
2022/06/12 11:46:24;;;;;;;;;;;;;;;23.20;56.00;101472.16;4982005;28;4366;-61
2022/06/12 11:49:07;;;;;;;;;;;;;;;23.20;56.15;101472.16;4978261;28;4250;-61
2022/06/12 11:51:39;;;;;;;;;;;;;;;23.22;55.95;101469.38;4961465;28;4164;-61
2022/06/12 11:54:24;;;;;;;;;;;;;;;23.21;55.79;101467.91;4963164;28;4365;-60
2022/06/12 11:56:54;;;;;;;;;;;;;;;23.22;55.99;101463.59;4966005;28;5395;-60
2022/06/12 11:59:27;;;;;;;;;;;;;;;23.20;55.96;101460.63;4959135;28;4542;-61
2022/06/12 12:01:59;;;;;;;;;;;;;;;23.20;55.92;101464.28;4964222;28;4264;-60
2022/06/12 12:04:41;;;;;;;;;;;;;;;23.21;56.12;101448.41;4960701;28;4345;-60
2022/06/12 12:07:10;;;;;;;;;;;;;;;23.22;55.90;101457.81;4962909;28;4401;-62
2022/06/12 12:09:42;;;;;;;;;;;;;;;23.21;56.09;101453.47;4959153;28;5272;-60
2022/06/12 12:12:13;;;;;;;;;;;;;;;23.22;56.28;101452.03;4955064;28;4541;-59
2022/06/12 12:14:40;;;;;;;;;;;;;;;23.23;56.13;101458.56;4964957;28;4494;-60
2022/06/12 12:17:07;;;;;;;;;;;;;;;23.23;56.17;101452.78;4961527;28;4306;-60
2022/06/12 12:19:40;;;;;;;;;;;;;;;23.23;56.21;101449.88;4959844;28;4230;-60
2022/06/12 12:22:09;;;;;;;;;;;;;;;23.23;55.91;101436.22;4964466;28;4512;-60
2022/06/12 12:24:38;;;;;;;;;;;;;;;23.23;56.14;101442.00;4962943;28;4059;-60
2022/06/12 12:27:05;;;;;;;;;;;;;;;23.23;56.00;101424.66;4958409;28;5331;-61
2022/06/12 12:29:33;;;;;;;;;;;;;;;23.24;55.94;101420.34;4961463;28;4231;-60
2022/06/12 12:32:01;;;;;;;;;;;;;;;23.25;55.97;101430.53;4965438;28;4089;-61
2022/06/12 12:34:27;;;;;;;;;;;;;;;23.24;56.00;101431.91;4963430;28;4166;-60
2022/06/12 12:42:34;;;;;;;;;;;;;;;23.27;55.70;101407.47;4965441;28;4127;-61
2022/06/12 12:45:09;;;;;;;;;;;;;;;23.27;55.62;101407.47;4961256;28;4273;-61
2022/06/12 12:47:36;;;;;;;;;;;;;;;23.28;55.66;101408.22;4960231;28;4323;-61
2022/06/12 12:50:13;;;;;;;;;;;;;;;23.26;55.65;101408.88;4963133;28;5017;-61
2022/06/12 12:52:41;;;;;;;;;;;;;;;23.27;55.56;101407.47;4957478;28;4323;-61
2022/06/12 12:55:16;;;;;;;;;;;;;;;23.27;55.48;101406.72;4957182;28;4232;-61
2022/06/12 12:57:43;;;;;;;;;;;;;;;23.27;55.47;101398.06;4961195;28;4251;-61
2022/06/12 13:00:15;;;;;;;;;;;;;;;23.26;55.48;101406.00;4959819;28;4236;-62
2022/06/12 13:03:00;;;;;;;;;;;;;;;23.27;55.45;101395.16;4963621;28;4089;-60
2022/06/12 13:05:30;;;;;;;;;;;;;;;23.27;55.55;101390.13;4952792;28;4453;-61
2022/06/12 13:08:13;;;;;;;;;;;;;;;23.26;55.51;101394.44;4952728;28;4278;-60
2022/06/12 13:10:43;;;;;;;;;;;;;;;23.32;55.10;101397.59;4959230;28;4163;-60
2022/06/12 13:13:19;;;;;;;;;;;;;;;23.37;55.14;101395.63;4958317;28;4389;-60
2022/06/12 13:15:45;;;;;;;;;;;;;;;23.36;55.20;101385.44;4964108;28;4417;-61
2022/06/12 13:18:12;;;;;;;;;;;;;;;23.33;55.12;101381.00;4963350;28;4521;-61
2022/06/12 13:20:40;;;;;;;;;;;;;;;23.31;55.31;101378.00;4966510;28;4264;-60
2022/06/12 13:23:13;;;;;;;;;;;;;;;23.30;55.29;101377.28;4961372;28;4597;-60
2022/06/12 13:25:42;;;;;;;;;;;;;;;23.32;55.19;101379.50;4964680;28;4443;-61